createdAt,value
2023-05-15T00:00:44.172Z,100715.28
2023-05-15T00:03:12.084Z,100715.59
2023-05-15T00:05:39.077Z,100714.81
2023-05-15T00:08:06.096Z,100708.75
2023-05-15T00:10:32.459Z,100712.00
2023-05-15T00:12:58.895Z,100717.00
2023-05-15T00:15:25.705Z,100704.84
2023-05-15T00:17:52.396Z,100703.56
2023-05-15T00:20:18.921Z,100704.53
2023-05-15T00:22:45.560Z,100697.47
2023-05-15T00:25:11.912Z,100697.38
2023-05-15T00:27:38.325Z,100699.50
2023-05-15T00:30:05.865Z,100691.56
2023-05-15T00:32:32.316Z,100683.81
2023-05-15T00:34:58.725Z,100687.34
2023-05-15T00:37:25.077Z,100686.41
2023-05-15T00:39:51.519Z,100679.44
2023-05-15T00:42:18.806Z,100676.53
2023-05-15T00:44:45.900Z,100666.22
2023-05-15T00:47:12.553Z,100665.97
2023-05-15T00:49:39.508Z,100656.97
2023-05-15T00:52:08.367Z,100659.13
2023-05-15T00:54:35.301Z,100657.47
2023-05-15T00:57:05.100Z,100651.47
2023-05-15T00:59:32.573Z,100648.44
2023-05-15T01:01:58.999Z,100646.03
2023-05-15T01:04:25.558Z,100650.56
2023-05-15T01:06:54.998Z,100647.41
2023-05-15T01:09:25.406Z,100644.22
2023-05-15T01:11:54.694Z,100641.31
2023-05-15T01:14:21.271Z,100632.78
2023-05-15T01:16:48.168Z,100639.91
2023-05-15T01:19:14.941Z,100632.06
2023-05-15T01:22:12.300Z,100630.38
2023-05-15T01:25:03.555Z,100627.75
2023-05-15T01:27:39.288Z,100627.81
2023-05-15T01:30:22.104Z,100629.72
2023-05-15T01:33:17.994Z,100626.38
2023-05-15T01:35:55.698Z,100629.84
2023-05-15T01:38:39.054Z,100629.31
2023-05-15T01:41:16.933Z,100636.31
2023-05-15T01:43:45.722Z,100637.75
2023-05-15T01:46:15.560Z,100625.19
2023-05-15T01:48:45.228Z,100628.19
2023-05-15T01:51:14.762Z,100634.19
2023-05-15T01:53:42.409Z,100623.91
2023-05-15T01:56:10.182Z,100618.25
2023-05-15T01:58:38.460Z,100618.28
2023-05-15T02:01:05.921Z,100615.19
2023-05-15T02:03:34.413Z,100610.63
2023-05-15T02:06:03.313Z,100608.16
2023-05-15T02:08:31.664Z,100607.44
2023-05-15T02:11:00.816Z,100614.19
2023-05-15T02:13:28.356Z,100609.44
2023-05-15T02:15:54.821Z,100605.34
2023-05-15T02:18:21.919Z,100606.19
2023-05-15T02:20:48.306Z,100608.50
2023-05-15T02:23:14.681Z,100607.63
2023-05-15T02:26:07.782Z,100602.72
2023-05-15T02:28:50.359Z,100602.75
2023-05-15T02:31:35.828Z,100599.28
2023-05-15T02:34:34.605Z,100591.56
2023-05-15T02:37:01.876Z,100589.19
2023-05-15T02:39:29.219Z,100581.84
2023-05-15T02:41:57.243Z,100581.22
2023-05-15T02:44:24.672Z,100577.69
2023-05-15T02:46:53.582Z,100568.03
2023-05-15T02:49:21.922Z,100574.31
2023-05-15T02:51:48.321Z,100574.31
2023-05-15T02:54:15.140Z,100567.31
2023-05-15T02:56:41.613Z,100566.00
2023-05-15T02:59:07.987Z,100560.56
2023-05-15T03:01:34.418Z,100562.00
2023-05-15T03:04:00.800Z,100553.19
2023-05-15T03:06:27.366Z,100556.72
2023-05-15T03:08:53.724Z,100552.13
2023-05-15T03:11:21.293Z,100553.63
2023-05-15T03:13:47.840Z,100548.19
2023-05-15T03:16:14.188Z,100551.34
2023-05-15T03:18:41.386Z,100557.84
2023-05-15T03:21:07.802Z,100551.94
2023-05-15T03:23:36.320Z,100559.38
2023-05-15T03:26:04.054Z,100553.91
2023-05-15T03:28:30.500Z,100547.56
2023-05-15T03:30:56.928Z,100563.25
2023-05-15T03:33:23.436Z,100548.47
2023-05-15T03:35:51.167Z,100547.59
2023-05-15T03:38:17.551Z,100545.78
2023-05-15T03:40:44.093Z,100546.28
2023-05-15T03:43:10.504Z,100544.75
2023-05-15T03:45:36.897Z,100538.31
2023-05-15T03:48:03.388Z,100538.34
2023-05-15T03:50:30.658Z,100544.59
2023-05-15T03:52:57.099Z,100543.56
2023-05-15T03:55:23.662Z,100537.59
2023-05-15T03:57:50.196Z,100540.06
2023-05-15T04:00:17.739Z,100532.22
2023-05-15T04:02:45.594Z,100534.97
2023-05-15T04:05:12.101Z,100541.69
2023-05-15T04:07:38.615Z,100543.72
2023-05-15T04:10:05.935Z,100541.44
2023-05-15T04:12:33.832Z,100538.22
2023-05-15T04:15:21.407Z,100540.56
2023-05-15T04:17:49.595Z,100538.94
2023-05-15T04:20:18.684Z,100529.09
2023-05-15T04:22:45.562Z,100529.50
2023-05-15T04:25:14.555Z,100532.69
2023-05-15T04:27:41.423Z,100531.97
2023-05-15T04:30:08.978Z,100534.84
2023-05-15T04:32:36.168Z,100533.81
2023-05-15T04:35:12.247Z,100528.41
2023-05-15T04:37:40.560Z,100523.25
2023-05-15T04:40:08.182Z,100526.78
2023-05-15T04:42:37.190Z,100519.13
2023-05-15T04:45:05.418Z,100523.03
2023-05-15T04:47:32.422Z,100535.91
2023-05-15T04:49:58.809Z,100520.25
2023-05-15T04:52:25.827Z,100527.31
2023-05-15T04:54:53.490Z,100534.88
2023-05-15T04:57:19.913Z,100521.94
2023-05-15T04:59:46.267Z,100520.88
2023-05-15T05:02:12.790Z,100516.38
2023-05-15T05:04:43.913Z,100526.97
2023-05-15T05:07:10.326Z,100525.19
2023-05-15T19:11:49.396Z,100234.38
2023-05-15T19:14:17.704Z,100239.41
2023-05-15T19:16:46.215Z,100229.16
2023-05-15T19:19:13.208Z,100247.22
2023-05-15T19:21:39.739Z,100241.88
2023-05-15T19:24:06.405Z,100258.53
2023-05-15T19:26:33.015Z,100256.41
2023-05-15T19:28:59.390Z,100264.84
2023-05-15T19:31:31.280Z,100276.78
2023-05-15T19:33:59.248Z,100272.44
2023-05-15T19:36:25.867Z,100270.03
2023-05-15T19:38:52.837Z,100287.53
2023-05-15T19:41:19.334Z,100287.56
2023-05-15T19:43:46.964Z,100281.63
2023-05-15T19:46:13.788Z,100288.44
2023-05-15T19:48:40.295Z,100282.19
2023-05-15T19:51:07.039Z,100271.38
2023-05-15T19:53:33.585Z,100279.34
2023-05-15T19:55:59.991Z,100279.03
2023-05-15T19:58:26.448Z,100287.75
2023-05-15T20:00:53.968Z,100285.31
2023-05-15T20:03:21.219Z,100281.75
2023-05-15T20:05:48.153Z,100284.31
2023-05-15T20:08:14.899Z,100293.53
2023-05-15T20:10:41.294Z,100294.72
2023-05-15T20:13:08.405Z,100297.06
2023-05-15T20:15:35.092Z,100296.34
2023-05-15T20:18:01.596Z,100298.13
2023-05-15T20:20:28.201Z,100297.34
2023-05-15T20:22:54.860Z,100296.28
2023-05-15T20:25:22.929Z,100302.28
2023-05-15T20:27:50.800Z,100306.38
2023-05-15T20:30:17.488Z,100300.78
2023-05-15T20:32:44.014Z,100298.38
2023-05-15T20:35:11.083Z,100296.50
2023-05-15T20:37:40.968Z,100289.31
2023-05-15T20:40:08.083Z,100292.09
2023-05-15T20:42:34.740Z,100301.69
2023-05-15T20:45:01.161Z,100291.25
2023-05-15T20:47:27.583Z,100298.03
2023-05-15T20:49:53.983Z,100299.97
2023-05-15T20:52:20.841Z,100298.28
2023-05-15T20:54:47.248Z,100302.81
2023-05-15T20:57:13.668Z,100304.69
2023-05-15T20:59:40.086Z,100301.03
2023-05-15T21:02:07.121Z,100297.66
2023-05-15T21:04:33.550Z,100302.81
2023-05-15T21:06:59.908Z,100299.00
2023-05-15T21:09:26.274Z,100307.03
2023-05-15T21:11:52.666Z,100301.38
2023-05-15T21:14:19.830Z,100297.91
2023-05-15T21:16:46.381Z,100296.25
2023-05-15T21:19:12.784Z,100291.94
2023-05-15T21:21:39.243Z,100296.28
2023-05-15T21:24:06.120Z,100296.38
2023-05-15T21:26:32.473Z,100300.78
2023-05-15T21:29:02.346Z,100308.81
2023-05-15T21:31:28.836Z,100306.97
2023-05-15T21:33:55.627Z,100301.69
2023-05-15T21:36:22.121Z,100307.03
2023-05-15T21:38:48.508Z,100299.34
2023-05-15T21:41:14.944Z,100311.78
2023-05-15T21:43:41.310Z,100312.41
2023-05-15T21:46:07.798Z,100311.38
2023-05-15T21:48:34.349Z,100316.06
2023-05-15T21:51:00.757Z,100309.66
2023-05-15T21:53:27.186Z,100326.38
2023-05-15T21:56:00.519Z,100323.56
2023-05-15T21:58:27.005Z,100323.53
2023-05-15T22:00:53.721Z,100327.16
2023-05-15T22:03:20.858Z,100322.91
2023-05-15T22:05:50.004Z,100327.97
2023-05-15T22:08:16.643Z,100329.09
2023-05-15T22:10:43.053Z,100330.06
2023-05-15T22:13:09.880Z,100328.44
2023-05-15T22:15:36.926Z,100328.94
2023-05-15T22:18:05.590Z,100331.13
2023-05-15T22:20:32.885Z,100320.88
2023-05-15T22:22:59.397Z,100326.16
2023-05-15T22:25:25.993Z,100330.31
2023-05-15T22:27:52.516Z,100319.34
2023-05-15T22:30:19.133Z,100329.72
2023-05-15T22:32:45.573Z,100334.03
2023-05-15T22:35:11.992Z,100337.94
2023-05-15T22:37:38.404Z,100337.97
2023-05-15T22:40:06.761Z,100340.41
2023-05-15T22:42:33.585Z,100341.88
2023-05-15T22:44:59.982Z,100342.09
2023-05-15T22:47:28.314Z,100352.63
2023-05-15T22:49:54.796Z,100348.28
2023-05-15T22:52:21.365Z,100360.41
2023-05-15T22:54:47.900Z,100353.56
2023-05-15T22:57:14.302Z,100354.63
2023-05-15T22:59:40.993Z,100362.88
2023-05-15T23:02:07.378Z,100374.91
2023-05-15T23:04:34.394Z,100354.50
2023-05-15T23:07:00.790Z,100368.41
2023-05-15T23:09:27.193Z,100379.28
2023-05-15T23:11:53.586Z,100376.59
2023-05-15T23:14:21.691Z,100385.56
2023-05-15T23:16:49.769Z,100387.25
2023-05-15T23:19:16.571Z,100383.69
2023-05-15T23:21:43.011Z,100379.00
2023-05-15T23:24:09.504Z,100377.78
2023-05-15T23:26:35.901Z,100380.13
2023-05-15T23:29:02.575Z,100375.63
2023-05-15T23:31:29.053Z,100379.59
2023-05-15T23:33:55.450Z,100386.88
2023-05-15T23:36:22.027Z,100382.00
2023-05-15T23:38:48.457Z,100378.75
2023-05-15T23:41:14.844Z,100380.97
2023-05-15T23:43:41.216Z,100373.28
2023-05-15T23:46:07.614Z,100372.09
2023-05-15T23:48:34.095Z,100374.84
2023-05-15T23:51:00.621Z,100382.00
2023-05-15T23:53:27.005Z,100375.16
2023-05-15T23:55:53.372Z,100385.03
2023-05-15T23:58:19.777Z,100382.44
